sensor_id;sensor_type;location;lat;lon;timestamp;temperature;humidity
18141;DHT22;9196;49.194;12.526;2023-05-09T00:02:18;12.00;99.90
18141;DHT22;9196;49.194;12.526;2023-05-09T00:04:46;11.80;99.90
18141;DHT22;9196;49.194;12.526;2023-05-09T00:07:13;11.90;99.90
18141;DHT22;9196;49.194;12.526;2023-05-09T00:09:40;11.90;99.90
18141;DHT22;9196;49.194;12.526;2023-05-09T00:12:07;11.90;99.90
18141;DHT22;9196;49.194;12.526;2023-05-09T00:14:34;11.80;99.90
18141;DHT22;9196;49.194;12.526;2023-05-09T00:17:02;11.90;99.90
18141;DHT22;9196;49.194;12.526;2023-05-09T00:19:29;11.90;99.90
18141;DHT22;9196;49.194;12.526;2023-05-09T00:21:56;11.90;99.90
18141;DHT22;9196;49.194;12.526;2023-05-09T00:24:23;11.90;99.90
18141;DHT22;9196;49.194;12.526;2023-05-09T00:26:50;12.00;99.90
18141;DHT22;9196;49.194;12.526;2023-05-09T00:29:17;12.00;99.90
18141;DHT22;9196;49.194;12.526;2023-05-09T00:31:43;12.10;99.90
18141;DHT22;9196;49.194;12.526;2023-05-09T00:34:11;12.10;99.90
18141;DHT22;9196;49.194;12.526;2023-05-09T00:36:38;12.10;99.90
18141;DHT22;9196;49.194;12.526;2023-05-09T00:39:07;12.00;99.90
18141;DHT22;9196;49.194;12.526;2023-05-09T00:41:37;12.00;99.90
18141;DHT22;9196;49.194;12.526;2023-05-09T00:44:05;12.00;99.90
18141;DHT22;9196;49.194;12.526;2023-05-09T00:46:32;12.00;99.90
18141;DHT22;9196;49.194;12.526;2023-05-09T00:48:59;11.90;99.90
18141;DHT22;9196;49.194;12.526;2023-05-09T00:51:27;11.90;99.90
18141;DHT22;9196;49.194;12.526;2023-05-09T00:53:54;11.90;99.90
18141;DHT22;9196;49.194;12.526;2023-05-09T00:56:21;11.70;99.90
18141;DHT22;9196;49.194;12.526;2023-05-09T00:58:48;11.70;99.90
18141;DHT22;9196;49.194;12.526;2023-05-09T01:01:15;11.70;99.90
18141;DHT22;9196;49.194;12.526;2023-05-09T01:03:42;11.70;99.90
18141;DHT22;9196;49.194;12.526;2023-05-09T01:06:15;11.60;99.90
18141;DHT22;9196;49.194;12.526;2023-05-09T01:08:51;11.60;99.90
18141;DHT22;9196;49.194;12.526;2023-05-09T01:11:30;11.50;99.90
18141;DHT22;9196;49.194;12.526;2023-05-09T01:14:06;11.50;99.90
18141;DHT22;9196;49.194;12.526;2023-05-09T01:16:37;11.40;99.90
18141;DHT22;9196;49.194;12.526;2023-05-09T01:19:19;11.40;99.90
18141;DHT22;9196;49.194;12.526;2023-05-09T01:21:51;11.30;99.90
18141;DHT22;9196;49.194;12.526;2023-05-09T01:24:58;11.20;99.90
18141;DHT22;9196;49.194;12.526;2023-05-09T01:27:38;11.20;99.90
18141;DHT22;9196;49.194;12.526;2023-05-09T01:30:11;11.10;99.90
18141;DHT22;9196;49.194;12.526;2023-05-09T01:32:39;11.10;99.90
18141;DHT22;9196;49.194;12.526;2023-05-09T01:35:10;11.10;99.90
18141;DHT22;9196;49.194;12.526;2023-05-09T01:37:41;11.10;99.90
18141;DHT22;9196;49.194;12.526;2023-05-09T01:40:14;11.10;99.90
18141;DHT22;9196;49.194;12.526;2023-05-09T01:42:44;11.00;99.90
18141;DHT22;9196;49.194;12.526;2023-05-09T01:45:14;11.00;99.90
18141;DHT22;9196;49.194;12.526;2023-05-09T01:47:42;11.00;99.90
18141;DHT22;9196;49.194;12.526;2023-05-09T01:50:10;10.90;99.90
18141;DHT22;9196;49.194;12.526;2023-05-09T01:52:39;10.90;99.90
18141;DHT22;9196;49.194;12.526;2023-05-09T01:55:06;10.90;99.90
18141;DHT22;9196;49.194;12.526;2023-05-09T01:57:34;10.80;99.90
18141;DHT22;9196;49.194;12.526;2023-05-09T02:00:02;10.70;99.90
18141;DHT22;9196;49.194;12.526;2023-05-09T02:02:33;10.70;99.90
18141;DHT22;9196;49.194;12.526;2023-05-09T02:05:01;10.70;99.90
18141;DHT22;9196;49.194;12.526;2023-05-09T02:07:28;10.60;99.90
18141;DHT22;9196;49.194;12.526;2023-05-09T02:09:57;10.60;99.90
18141;DHT22;9196;49.194;12.526;2023-05-09T02:12:25;10.60;99.90
18141;DHT22;9196;49.194;12.526;2023-05-09T02:14:52;10.50;99.90
18141;DHT22;9196;49.194;12.526;2023-05-09T02:17:18;10.50;99.90
18141;DHT22;9196;49.194;12.526;2023-05-09T02:19:47;10.50;99.90
18141;DHT22;9196;49.194;12.526;2023-05-09T02:22:14;10.50;99.90
18141;DHT22;9196;49.194;12.526;2023-05-09T02:24:42;10.50;99.90
18141;DHT22;9196;49.194;12.526;2023-05-09T02:27:09;10.40;99.90
18141;DHT22;9196;49.194;12.526;2023-05-09T02:29:43;10.40;99.90
18141;DHT22;9196;49.194;12.526;2023-05-09T02:32:14;10.40;99.90
18141;DHT22;9196;49.194;12.526;2023-05-09T02:34:41;10.40;99.90
18141;DHT22;9196;49.194;12.526;2023-05-09T02:37:10;10.30;99.90
18141;DHT22;9196;49.194;12.526;2023-05-09T02:39:38;10.30;99.90
18141;DHT22;9196;49.194;12.526;2023-05-09T02:42:09;10.30;99.90
18141;DHT22;9196;49.194;12.526;2023-05-09T02:44:36;10.30;99.90
18141;DHT22;9196;49.194;12.526;2023-05-09T02:47:04;10.20;99.90
18141;DHT22;9196;49.194;12.526;2023-05-09T02:49:32;10.20;99.90
18141;DHT22;9196;49.194;12.526;2023-05-09T02:51:59;10.20;99.90
18141;DHT22;9196;49.194;12.526;2023-05-09T02:54:27;10.20;99.90
18141;DHT22;9196;49.194;12.526;2023-05-09T02:56:54;10.20;99.90
18141;DHT22;9196;49.194;12.526;2023-05-09T02:59:21;10.20;99.90
18141;DHT22;9196;49.194;12.526;2023-05-09T03:01:48;10.10;99.90
18141;DHT22;9196;49.194;12.526;2023-05-09T03:04:14;10.20;99.90
18141;DHT22;9196;49.194;12.526;2023-05-09T03:06:42;10.10;99.90
18141;DHT22;9196;49.194;12.526;2023-05-09T03:09:09;10.20;99.90
18141;DHT22;9196;49.194;12.526;2023-05-09T03:11:37;10.20;99.90
18141;DHT22;9196;49.194;12.526;2023-05-09T03:14:04;10.10;99.90
18141;DHT22;9196;49.194;12.526;2023-05-09T03:16:33;10.10;99.90
18141;DHT22;9196;49.194;12.526;2023-05-09T03:18:59;10.10;99.90
18141;DHT22;9196;49.194;12.526;2023-05-09T03:21:26;10.20;99.90
18141;DHT22;9196;49.194;12.526;2023-05-09T03:23:53;10.10;99.90
18141;DHT22;9196;49.194;12.526;2023-05-09T03:26:20;10.00;99.90
18141;DHT22;9196;49.194;12.526;2023-05-09T03:28:48;10.00;99.90
18141;DHT22;9196;49.194;12.526;2023-05-09T03:31:15;9.90;99.90
18141;DHT22;9196;49.194;12.526;2023-05-09T03:33:42;10.00;99.90
18141;DHT22;9196;49.194;12.526;2023-05-09T03:36:09;10.00;99.90
18141;DHT22;9196;49.194;12.526;2023-05-09T03:38:36;10.00;99.90
18141;DHT22;9196;49.194;12.526;2023-05-09T03:41:03;9.90;99.90
18141;DHT22;9196;49.194;12.526;2023-05-09T03:43:29;9.80;99.90
18141;DHT22;9196;49.194;12.526;2023-05-09T03:45:58;9.80;99.90
18141;DHT22;9196;49.194;12.526;2023-05-09T03:48:25;9.90;99.90
18141;DHT22;9196;49.194;12.526;2023-05-09T03:50:51;9.70;99.90
18141;DHT22;9196;49.194;12.526;2023-05-09T03:53:18;9.70;99.90
18141;DHT22;9196;49.194;12.526;2023-05-09T03:55:45;9.70;99.90
18141;DHT22;9196;49.194;12.526;2023-05-09T03:58:12;9.70;99.90
18141;DHT22;9196;49.194;12.526;2023-05-09T04:00:39;9.70;99.90
18141;DHT22;9196;49.194;12.526;2023-05-09T04:03:08;9.70;99.90
18141;DHT22;9196;49.194;12.526;2023-05-09T04:05:35;9.70;99.90
18141;DHT22;9196;49.194;12.526;2023-05-09T04:08:02;9.70;99.90
18141;DHT22;9196;49.194;12.526;2023-05-09T04:10:30;9.60;99.90
18141;DHT22;9196;49.194;12.526;2023-05-09T04:12:57;9.60;99.90
18141;DHT22;9196;49.194;12.526;2023-05-09T04:15:24;9.50;99.90
18141;DHT22;9196;49.194;12.526;2023-05-09T04:17:50;9.50;99.90
18141;DHT22;9196;49.194;12.526;2023-05-09T04:20:19;9.50;99.90
18141;DHT22;9196;49.194;12.526;2023-05-09T04:22:45;9.60;99.90
18141;DHT22;9196;49.194;12.526;2023-05-09T04:25:12;9.60;99.90
18141;DHT22;9196;49.194;12.526;2023-05-09T04:27:40;9.70;99.90
18141;DHT22;9196;49.194;12.526;2023-05-09T04:30:08;9.60;99.90
18141;DHT22;9196;49.194;12.526;2023-05-09T04:32:35;9.70;99.90
18141;DHT22;9196;49.194;12.526;2023-05-09T04:35:01;9.70;99.90
18141;DHT22;9196;49.194;12.526;2023-05-09T04:37:30;9.70;99.90
18141;DHT22;9196;49.194;12.526;2023-05-09T04:39:57;9.70;99.90
18141;DHT22;9196;49.194;12.526;2023-05-09T04:42:24;9.80;99.90
18141;DHT22;9196;49.194;12.526;2023-05-09T04:44:51;9.90;99.90
18141;DHT22;9196;49.194;12.526;2023-05-09T04:47:18;9.90;99.90
18141;DHT22;9196;49.194;12.526;2023-05-09T04:49:44;9.90;99.90
18141;DHT22;9196;49.194;12.526;2023-05-09T04:52:11;9.80;99.90
18141;DHT22;9196;49.194;12.526;2023-05-09T04:54:39;9.80;99.90
18141;DHT22;9196;49.194;12.526;2023-05-09T04:57:06;9.80;99.90
18141;DHT22;9196;49.194;12.526;2023-05-09T04:59:33;9.70;99.90
18141;DHT22;9196;49.194;12.526;2023-05-09T05:02:00;9.80;99.90
18141;DHT22;9196;49.194;12.526;2023-05-09T05:04:27;9.80;99.90
18141;DHT22;9196;49.194;12.526;2023-05-09T05:06:54;9.80;99.90
18141;DHT22;9196;49.194;12.526;2023-05-09T05:09:21;9.90;99.90
18141;DHT22;9196;49.194;12.526;2023-05-09T05:11:50;10.00;99.90
18141;DHT22;9196;49.194;12.526;2023-05-09T05:14:16;10.20;99.90
18141;DHT22;9196;49.194;12.526;2023-05-09T05:16:43;10.40;99.90
18141;DHT22;9196;49.194;12.526;2023-05-09T05:19:10;10.60;99.90
18141;DHT22;9196;49.194;12.526;2023-05-09T05:21:37;10.70;99.90
18141;DHT22;9196;49.194;12.526;2023-05-09T05:24:04;10.90;99.90
18141;DHT22;9196;49.194;12.526;2023-05-09T05:26:31;11.00;99.90
18141;DHT22;9196;49.194;12.526;2023-05-09T05:28:59;11.10;99.90
18141;DHT22;9196;49.194;12.526;2023-05-09T05:31:25;11.20;99.90
18141;DHT22;9196;49.194;12.526;2023-05-09T05:33:52;11.30;99.90
18141;DHT22;9196;49.194;12.526;2023-05-09T05:36:19;11.30;99.90
18141;DHT22;9196;49.194;12.526;2023-05-09T05:38:46;11.40;99.90
18141;DHT22;9196;49.194;12.526;2023-05-09T05:41:12;11.50;99.90
18141;DHT22;9196;49.194;12.526;2023-05-09T05:43:40;11.70;99.90
18141;DHT22;9196;49.194;12.526;2023-05-09T05:46:08;11.60;99.90
18141;DHT22;9196;49.194;12.526;2023-05-09T05:48:35;11.70;99.90
18141;DHT22;9196;49.194;12.526;2023-05-09T05:51:02;11.70;99.90
18141;DHT22;9196;49.194;12.526;2023-05-09T05:53:28;11.70;99.90
18141;DHT22;9196;49.194;12.526;2023-05-09T05:55:55;11.80;99.90
18141;DHT22;9196;49.194;12.526;2023-05-09T05:58:22;11.90;99.90
18141;DHT22;9196;49.194;12.526;2023-05-09T06:00:50;11.90;99.90
18141;DHT22;9196;49.194;12.526;2023-05-09T06:03:18;12.00;99.90
18141;DHT22;9196;49.194;12.526;2023-05-09T06:05:46;12.00;99.90
18141;DHT22;9196;49.194;12.526;2023-05-09T06:08:13;12.20;99.90
18141;DHT22;9196;49.194;12.526;2023-05-09T06:10:39;12.20;99.90
18141;DHT22;9196;49.194;12.526;2023-05-09T06:13:06;12.20;99.90
18141;DHT22;9196;49.194;12.526;2023-05-09T06:15:33;12.00;99.90
18141;DHT22;9196;49.194;12.526;2023-05-09T06:18:00;12.00;99.80
18141;DHT22;9196;49.194;12.526;2023-05-09T06:20:28;12.00;99.90
18141;DHT22;9196;49.194;12.526;2023-05-09T06:22:55;11.90;99.90
18141;DHT22;9196;49.194;12.526;2023-05-09T06:25:22;12.10;99.90
18141;DHT22;9196;49.194;12.526;2023-05-09T06:27:49;12.30;99.90
18141;DHT22;9196;49.194;12.526;2023-05-09T06:30:15;12.30;99.20
18141;DHT22;9196;49.194;12.526;2023-05-09T06:32:42;12.30;99.30
18141;DHT22;9196;49.194;12.526;2023-05-09T06:35:09;12.50;98.70
18141;DHT22;9196;49.194;12.526;2023-05-09T06:37:37;12.70;98.40
18141;DHT22;9196;49.194;12.526;2023-05-09T06:40:05;12.80;98.30
18141;DHT22;9196;49.194;12.526;2023-05-09T06:42:32;12.90;98.00
18141;DHT22;9196;49.194;12.526;2023-05-09T06:44:59;13.00;98.20
18141;DHT22;9196;49.194;12.526;2023-05-09T06:47:26;12.90;97.40
18141;DHT22;9196;49.194;12.526;2023-05-09T06:49:52;12.90;98.20
18141;DHT22;9196;49.194;12.526;2023-05-09T06:52:19;13.00;98.30
18141;DHT22;9196;49.194;12.526;2023-05-09T06:54:48;13.20;97.80
18141;DHT22;9196;49.194;12.526;2023-05-09T06:57:15;13.40;97.10
18141;DHT22;9196;49.194;12.526;2023-05-09T06:59:41;13.30;96.60
18141;DHT22;9196;49.194;12.526;2023-05-09T07:02:09;13.50;97.00
18141;DHT22;9196;49.194;12.526;2023-05-09T07:04:36;13.60;97.00
18141;DHT22;9196;49.194;12.526;2023-05-09T07:07:04;13.90;96.90
18141;DHT22;9196;49.194;12.526;2023-05-09T07:09:31;13.90;95.80
18141;DHT22;9196;49.194;12.526;2023-05-09T07:12:00;14.00;96.80
18141;DHT22;9196;49.194;12.526;2023-05-09T07:14:27;13.90;96.60
18141;DHT22;9196;49.194;12.526;2023-05-09T07:16:53;14.10;96.50
18141;DHT22;9196;49.194;12.526;2023-05-09T07:19:20;14.30;96.70
18141;DHT22;9196;49.194;12.526;2023-05-09T07:21:47;14.40;96.50
18141;DHT22;9196;49.194;12.526;2023-05-09T07:24:14;14.60;96.30
18141;DHT22;9196;49.194;12.526;2023-05-09T07:26:40;14.90;95.60
18141;DHT22;9196;49.194;12.526;2023-05-09T07:29:09;15.00;95.50
18141;DHT22;9196;49.194;12.526;2023-05-09T07:31:35;15.10;95.20
18141;DHT22;9196;49.194;12.526;2023-05-09T07:34:02;15.10;95.30
18141;DHT22;9196;49.194;12.526;2023-05-09T07:36:29;15.10;95.60
18141;DHT22;9196;49.194;12.526;2023-05-09T07:38:56;15.00;94.50
18141;DHT22;9196;49.194;12.526;2023-05-09T07:41:22;15.30;95.30
18141;DHT22;9196;49.194;12.526;2023-05-09T07:43:49;15.40;94.90
18141;DHT22;9196;49.194;12.526;2023-05-09T07:46:17;15.50;95.50
18141;DHT22;9196;49.194;12.526;2023-05-09T07:48:44;15.70;95.20
18141;DHT22;9196;49.194;12.526;2023-05-09T07:51:11;15.80;94.30
18141;DHT22;9196;49.194;12.526;2023-05-09T07:53:37;16.00;93.80
18141;DHT22;9196;49.194;12.526;2023-05-09T07:56:04;15.90;93.60
18141;DHT22;9196;49.194;12.526;2023-05-09T07:58:32;16.00;93.60
18141;DHT22;9196;49.194;12.526;2023-05-09T08:00:59;16.10;93.80
18141;DHT22;9196;49.194;12.526;2023-05-09T08:03:27;16.20;93.30
18141;DHT22;9196;49.194;12.526;2023-05-09T08:05:54;16.30;93.40
18141;DHT22;9196;49.194;12.526;2023-05-09T08:08:21;16.40;93.10
18141;DHT22;9196;49.194;12.526;2023-05-09T08:10:48;16.50;92.50
18141;DHT22;9196;49.194;12.526;2023-05-09T08:13:14;16.60;93.00
18141;DHT22;9196;49.194;12.526;2023-05-09T08:15:43;16.50;92.80
18141;DHT22;9196;49.194;12.526;2023-05-09T08:18:09;16.70;92.80
18141;DHT22;9196;49.194;12.526;2023-05-09T08:20:38;16.70;91.50
18141;DHT22;9196;49.194;12.526;2023-05-09T08:23:05;16.80;91.60
18141;DHT22;9196;49.194;12.526;2023-05-09T08:25:32;17.00;91.70
18141;DHT22;9196;49.194;12.526;2023-05-09T08:27:58;17.10;90.70
18141;DHT22;9196;49.194;12.526;2023-05-09T08:30:25;16.90;90.40
18141;DHT22;9196;49.194;12.526;2023-05-09T08:32:53;17.00;90.10
18141;DHT22;9196;49.194;12.526;2023-05-09T08:35:20;16.90;90.90
18141;DHT22;9196;49.194;12.526;2023-05-09T08:37:48;16.90;90.40
18141;DHT22;9196;49.194;12.526;2023-05-09T08:40:15;17.00;90.90
18141;DHT22;9196;49.194;12.526;2023-05-09T08:42:43;17.10;91.40
18141;DHT22;9196;49.194;12.526;2023-05-09T08:45:11;17.30;90.80
18141;DHT22;9196;49.194;12.526;2023-05-09T08:47:40;17.30;90.30
18141;DHT22;9196;49.194;12.526;2023-05-09T08:50:08;17.40;89.00
18141;DHT22;9196;49.194;12.526;2023-05-09T08:52:36;17.50;88.00
18141;DHT22;9196;49.194;12.526;2023-05-09T08:55:04;17.50;87.10
18141;DHT22;9196;49.194;12.526;2023-05-09T08:57:32;17.40;89.00
18141;DHT22;9196;49.194;12.526;2023-05-09T09:00:00;17.50;87.70
18141;DHT22;9196;49.194;12.526;2023-05-09T09:02:29;17.50;87.50
18141;DHT22;9196;49.194;12.526;2023-05-09T09:04:56;17.60;84.50
18141;DHT22;9196;49.194;12.526;2023-05-09T09:07:24;17.50;86.20
18141;DHT22;9196;49.194;12.526;2023-05-09T09:09:53;17.60;86.20
18141;DHT22;9196;49.194;12.526;2023-05-09T09:12:24;17.70;85.00
18141;DHT22;9196;49.194;12.526;2023-05-09T09:15:09;17.80;83.40
18141;DHT22;9196;49.194;12.526;2023-05-09T09:17:39;17.70;82.50
18141;DHT22;9196;49.194;12.526;2023-05-09T09:20:10;17.80;82.70
18141;DHT22;9196;49.194;12.526;2023-05-09T09:22:40;17.60;81.10
18141;DHT22;9196;49.194;12.526;2023-05-09T09:25:08;17.50;83.00
18141;DHT22;9196;49.194;12.526;2023-05-09T09:27:36;17.70;84.40
18141;DHT22;9196;49.194;12.526;2023-05-09T09:30:07;17.60;84.30
18141;DHT22;9196;49.194;12.526;2023-05-09T09:32:35;17.80;84.10
18141;DHT22;9196;49.194;12.526;2023-05-09T09:35:06;18.10;82.60
18141;DHT22;9196;49.194;12.526;2023-05-09T09:37:33;18.20;82.20
18141;DHT22;9196;49.194;12.526;2023-05-09T09:40:01;18.30;81.90
18141;DHT22;9196;49.194;12.526;2023-05-09T09:42:41;18.50;81.40
18141;DHT22;9196;49.194;12.526;2023-05-09T09:45:10;18.40;81.20
18141;DHT22;9196;49.194;12.526;2023-05-09T09:47:38;18.50;80.50
18141;DHT22;9196;49.194;12.526;2023-05-09T09:50:15;18.60;80.50
18141;DHT22;9196;49.194;12.526;2023-05-09T09:52:43;18.70;76.50
18141;DHT22;9196;49.194;12.526;2023-05-09T09:55:14;18.40;79.60
18141;DHT22;9196;49.194;12.526;2023-05-09T09:57:42;18.30;79.40
18141;DHT22;9196;49.194;12.526;2023-05-09T10:00:11;18.40;80.70
18141;DHT22;9196;49.194;12.526;2023-05-09T10:02:49;18.50;79.90
18141;DHT22;9196;49.194;12.526;2023-05-09T10:05:20;18.70;80.00
18141;DHT22;9196;49.194;12.526;2023-05-09T10:07:54;18.80;80.20
18141;DHT22;9196;49.194;12.526;2023-05-09T10:10:22;19.00;75.60
18141;DHT22;9196;49.194;12.526;2023-05-09T10:12:54;18.90;79.00
18141;DHT22;9196;49.194;12.526;2023-05-09T10:15:22;18.90;77.70
18141;DHT22;9196;49.194;12.526;2023-05-09T10:17:52;19.00;77.30
18141;DHT22;9196;49.194;12.526;2023-05-09T10:20:20;19.20;77.70
18141;DHT22;9196;49.194;12.526;2023-05-09T10:22:47;19.10;75.60
18141;DHT22;9196;49.194;12.526;2023-05-09T10:25:18;19.00;76.70
18141;DHT22;9196;49.194;12.526;2023-05-09T10:27:46;18.90;76.70
18141;DHT22;9196;49.194;12.526;2023-05-09T10:30:17;19.00;77.00
18141;DHT22;9196;49.194;12.526;2023-05-09T10:32:50;19.20;76.80
18141;DHT22;9196;49.194;12.526;2023-05-09T10:35:19;19.50;76.40
18141;DHT22;9196;49.194;12.526;2023-05-09T10:37:47;19.60;72.90
18141;DHT22;9196;49.194;12.526;2023-05-09T10:40:14;19.70;72.00
18141;DHT22;9196;49.194;12.526;2023-05-09T10:42:41;19.50;67.60
18141;DHT22;9196;49.194;12.526;2023-05-09T10:45:13;19.60;72.10
18141;DHT22;9196;49.194;12.526;2023-05-09T10:50:39;19.90;72.50
18141;DHT22;9196;49.194;12.526;2023-05-09T10:53:08;20.00;72.20
18141;DHT22;9196;49.194;12.526;2023-05-09T10:55:46;20.10;70.90
18141;DHT22;9196;49.194;12.526;2023-05-09T10:58:18;20.30;67.20
18141;DHT22;9196;49.194;12.526;2023-05-09T11:00:46;20.20;67.90
18141;DHT22;9196;49.194;12.526;2023-05-09T11:03:14;20.30;66.70
18141;DHT22;9196;49.194;12.526;2023-05-09T11:05:56;20.20;69.70
18141;DHT22;9196;49.194;12.526;2023-05-09T11:08:25;20.30;68.60
18141;DHT22;9196;49.194;12.526;2023-05-09T11:10:53;20.40;71.80
18141;DHT22;9196;49.194;12.526;2023-05-09T11:13:22;20.50;69.90
18141;DHT22;9196;49.194;12.526;2023-05-09T11:15:57;20.70;69.40
18141;DHT22;9196;49.194;12.526;2023-05-09T11:18:29;20.70;69.50
18141;DHT22;9196;49.194;12.526;2023-05-09T11:20:58;20.90;68.30
18141;DHT22;9196;49.194;12.526;2023-05-09T11:23:26;20.90;66.60
18141;DHT22;9196;49.194;12.526;2023-05-09T11:26:03;20.70;66.20
18141;DHT22;9196;49.194;12.526;2023-05-09T11:28:32;20.80;66.20
18141;DHT22;9196;49.194;12.526;2023-05-09T11:31:09;20.90;63.40
18141;DHT22;9196;49.194;12.526;2023-05-09T11:33:37;20.80;65.50
18141;DHT22;9196;49.194;12.526;2023-05-09T11:36:19;21.00;64.90
18141;DHT22;9196;49.194;12.526;2023-05-09T11:39:03;21.10;65.50
18141;DHT22;9196;49.194;12.526;2023-05-09T11:41:31;21.00;62.10
18141;DHT22;9196;49.194;12.526;2023-05-09T11:44:16;21.00;66.20
18141;DHT22;9196;49.194;12.526;2023-05-09T11:46:43;21.20;63.10
18141;DHT22;9196;49.194;12.526;2023-05-09T11:49:10;21.20;62.30
18141;DHT22;9196;49.194;12.526;2023-05-09T11:51:39;21.20;65.70
18141;DHT22;9196;49.194;12.526;2023-05-09T11:54:07;21.40;64.00
18141;DHT22;9196;49.194;12.526;2023-05-09T11:56:40;21.50;65.30
18141;DHT22;9196;49.194;12.526;2023-05-09T11:59:21;21.50;63.80
18141;DHT22;9196;49.194;12.526;2023-05-09T12:01:49;21.60;62.80
18141;DHT22;9196;49.194;12.526;2023-05-09T12:04:15;21.80;64.00
18141;DHT22;9196;49.194;12.526;2023-05-09T12:06:47;21.80;59.70
18141;DHT22;9196;49.194;12.526;2023-05-09T12:09:14;21.90;62.80
18141;DHT22;9196;49.194;12.526;2023-05-09T12:11:46;22.00;61.30
18141;DHT22;9196;49.194;12.526;2023-05-09T12:14:25;22.30;62.50
18141;DHT22;9196;49.194;12.526;2023-05-09T12:16:53;22.50;62.60
18141;DHT22;9196;49.194;12.526;2023-05-09T12:19:22;22.50;63.30
18141;DHT22;9196;49.194;12.526;2023-05-09T12:21:53;22.60;61.20
18141;DHT22;9196;49.194;12.526;2023-05-09T12:24:20;22.50;61.10
18141;DHT22;9196;49.194;12.526;2023-05-09T12:26:47;22.80;60.80
18141;DHT22;9196;49.194;12.526;2023-05-09T12:29:15;23.00;60.20
18141;DHT22;9196;49.194;12.526;2023-05-09T12:31:42;23.00;60.50
18141;DHT22;9196;49.194;12.526;2023-05-09T12:34:09;22.80;61.20
18141;DHT22;9196;49.194;12.526;2023-05-09T12:36:36;23.00;59.30
18141;DHT22;9196;49.194;12.526;2023-05-09T12:39:08;23.00;61.10
18141;DHT22;9196;49.194;12.526;2023-05-09T12:41:41;23.00;59.80
18141;DHT22;9196;49.194;12.526;2023-05-09T12:44:08;22.90;60.80
18141;DHT22;9196;49.194;12.526;2023-05-09T12:46:35;22.80;63.40
18141;DHT22;9196;49.194;12.526;2023-05-09T12:49:02;23.10;60.80
18141;DHT22;9196;49.194;12.526;2023-05-09T12:51:29;23.10;59.20
18141;DHT22;9196;49.194;12.526;2023-05-09T12:54:02;23.30;61.50
18141;DHT22;9196;49.194;12.526;2023-05-09T12:56:33;23.50;61.50
18141;DHT22;9196;49.194;12.526;2023-05-09T12:59:00;23.30;62.90
18141;DHT22;9196;49.194;12.526;2023-05-09T13:01:28;23.30;62.20
18141;DHT22;9196;49.194;12.526;2023-05-09T13:04:00;23.40;60.90
18141;DHT22;9196;49.194;12.526;2023-05-09T13:06:28;23.60;58.70
18141;DHT22;9196;49.194;12.526;2023-05-09T13:08:58;23.60;57.90
18141;DHT22;9196;49.194;12.526;2023-05-09T13:11:26;23.60;56.20
18141;DHT22;9196;49.194;12.526;2023-05-09T13:13:54;23.40;57.10
18141;DHT22;9196;49.194;12.526;2023-05-09T13:16:21;23.50;58.80
18141;DHT22;9196;49.194;12.526;2023-05-09T13:18:48;23.50;61.10
18141;DHT22;9196;49.194;12.526;2023-05-09T13:21:15;23.60;60.80
18141;DHT22;9196;49.194;12.526;2023-05-09T13:23:42;23.40;60.40
18141;DHT22;9196;49.194;12.526;2023-05-09T13:26:09;23.30;59.60
18141;DHT22;9196;49.194;12.526;2023-05-09T13:28:36;23.40;58.70
18141;DHT22;9196;49.194;12.526;2023-05-09T13:31:04;23.20;59.10
18141;DHT22;9196;49.194;12.526;2023-05-09T13:33:32;23.20;61.90
18141;DHT22;9196;49.194;12.526;2023-05-09T13:35:59;23.30;62.80
18141;DHT22;9196;49.194;12.526;2023-05-09T13:38:26;23.50;60.80
18141;DHT22;9196;49.194;12.526;2023-05-09T13:40:55;23.50;61.70
18141;DHT22;9196;49.194;12.526;2023-05-09T13:43:22;23.50;60.90
18141;DHT22;9196;49.194;12.526;2023-05-09T13:45:48;23.60;59.90
18141;DHT22;9196;49.194;12.526;2023-05-09T13:48:17;23.70;61.10
18141;DHT22;9196;49.194;12.526;2023-05-09T13:50:43;23.90;62.20
18141;DHT22;9196;49.194;12.526;2023-05-09T13:53:11;24.20;61.10
18141;DHT22;9196;49.194;12.526;2023-05-09T13:55:37;24.10;61.50
18141;DHT22;9196;49.194;12.526;2023-05-09T13:58:04;24.20;59.90
18141;DHT22;9196;49.194;12.526;2023-05-09T14:00:32;24.10;59.60
18141;DHT22;9196;49.194;12.526;2023-05-09T14:03:00;23.70;60.50
18141;DHT22;9196;49.194;12.526;2023-05-09T14:05:30;23.50;59.60
18141;DHT22;9196;49.194;12.526;2023-05-09T14:07:56;23.70;61.60
18141;DHT22;9196;49.194;12.526;2023-05-09T14:10:24;23.50;62.20
18141;DHT22;9196;49.194;12.526;2023-05-09T14:12:51;23.60;61.90
18141;DHT22;9196;49.194;12.526;2023-05-09T14:15:18;23.70;60.90
18141;DHT22;9196;49.194;12.526;2023-05-09T14:17:45;23.80;62.50
18141;DHT22;9196;49.194;12.526;2023-05-09T14:20:12;23.70;59.30
18141;DHT22;9196;49.194;12.526;2023-05-09T14:22:41;23.80;59.60
18141;DHT22;9196;49.194;12.526;2023-05-09T14:25:08;23.70;59.90
18141;DHT22;9196;49.194;12.526;2023-05-09T14:27:35;23.80;60.80
18141;DHT22;9196;49.194;12.526;2023-05-09T14:30:02;23.90;60.00
18141;DHT22;9196;49.194;12.526;2023-05-09T14:32:29;23.90;59.90
18141;DHT22;9196;49.194;12.526;2023-05-09T14:34:56;23.80;60.00
18141;DHT22;9196;49.194;12.526;2023-05-09T14:37:22;24.10;59.50
18141;DHT22;9196;49.194;12.526;2023-05-09T14:39:51;24.10;59.40
18141;DHT22;9196;49.194;12.526;2023-05-09T14:42:17;23.90;61.60
18141;DHT22;9196;49.194;12.526;2023-05-09T14:44:44;24.00;59.30
18141;DHT22;9196;49.194;12.526;2023-05-09T14:47:11;24.00;61.10
18141;DHT22;9196;49.194;12.526;2023-05-09T14:49:38;23.90;58.60
18141;DHT22;9196;49.194;12.526;2023-05-09T14:52:05;23.80;59.50
18141;DHT22;9196;49.194;12.526;2023-05-09T14:54:32;23.60;60.50
18141;DHT22;9196;49.194;12.526;2023-05-09T14:57:00;23.50;59.70
18141;DHT22;9196;49.194;12.526;2023-05-09T14:59:29;23.40;59.30
18141;DHT22;9196;49.194;12.526;2023-05-09T15:01:56;23.20;59.80
18141;DHT22;9196;49.194;12.526;2023-05-09T15:04:23;23.20;60.50
18141;DHT22;9196;49.194;12.526;2023-05-09T15:06:52;23.40;59.70
18141;DHT22;9196;49.194;12.526;2023-05-09T15:09:19;23.30;60.20
18141;DHT22;9196;49.194;12.526;2023-05-09T15:11:46;23.40;60.70
18141;DHT22;9196;49.194;12.526;2023-05-09T15:14:15;23.60;59.10
18141;DHT22;9196;49.194;12.526;2023-05-09T15:16:41;23.50;58.70
18141;DHT22;9196;49.194;12.526;2023-05-09T15:19:08;23.20;59.60
18141;DHT22;9196;49.194;12.526;2023-05-09T15:21:35;23.10;59.60
18141;DHT22;9196;49.194;12.526;2023-05-09T15:24:02;22.80;59.50
18141;DHT22;9196;49.194;12.526;2023-05-09T15:26:29;22.60;60.70
18141;DHT22;9196;49.194;12.526;2023-05-09T15:28:56;22.50;60.70
18141;DHT22;9196;49.194;12.526;2023-05-09T15:31:24;22.60;61.60
18141;DHT22;9196;49.194;12.526;2023-05-09T15:33:51;22.50;61.30
18141;DHT22;9196;49.194;12.526;2023-05-09T15:36:18;22.40;61.70
18141;DHT22;9196;49.194;12.526;2023-05-09T15:38:45;22.50;61.80
18141;DHT22;9196;49.194;12.526;2023-05-09T15:41:13;22.70;61.20
18141;DHT22;9196;49.194;12.526;2023-05-09T15:43:40;22.60;63.00